createdAt,value
2019-05-14T00:01:25.227Z,99.90
2019-05-14T00:03:52.733Z,99.90
2019-05-14T00:06:21.930Z,99.90
2019-05-14T00:08:49.472Z,99.90
2019-05-14T00:11:16.727Z,99.90
2019-05-14T00:13:43.883Z,99.90
2019-05-14T00:16:11.873Z,99.90
2019-05-14T00:18:39.228Z,99.90
2019-05-14T00:21:06.598Z,99.90
2019-05-14T00:23:33.947Z,99.90
2019-05-14T00:26:01.821Z,99.90
2019-05-14T00:28:31.551Z,99.90
2019-05-14T00:30:58.389Z,99.90
2019-05-14T00:33:25.655Z,99.90
2019-05-14T00:35:52.908Z,99.90
2019-05-14T00:38:22.365Z,99.90
2019-05-14T00:40:51.186Z,99.90
2019-05-14T00:43:18.150Z,99.90
2019-05-14T00:45:45.328Z,99.90
2019-05-14T00:48:13.057Z,99.90
2019-05-14T00:50:42.109Z,99.90
2019-05-14T00:53:11.662Z,99.90
2019-05-14T00:55:38.665Z,99.90
2019-05-14T00:58:05.850Z,99.90
2019-05-14T01:00:33.104Z,99.90
2019-05-14T01:03:02.058Z,99.90
2019-05-14T01:05:29.436Z,99.90
2019-05-14T01:07:56.571Z,99.90
2019-05-14T01:10:24.055Z,99.90
2019-05-14T01:12:52.045Z,99.90
2019-05-14T01:15:21.512Z,99.90
2019-05-14T01:17:48.699Z,99.90
2019-05-14T01:20:16.288Z,99.90
2019-05-14T01:22:43.460Z,99.90
2019-05-14T01:25:12.010Z,99.90
2019-05-14T01:27:41.364Z,99.90
2019-05-14T01:30:12.271Z,99.90
2019-05-14T01:32:39.189Z,99.90
2019-05-14T01:35:06.647Z,99.90
2019-05-14T01:37:33.801Z,99.90
2019-05-14T01:40:01.357Z,99.90
2019-05-14T01:42:28.607Z,99.90
2019-05-14T01:44:55.867Z,99.90
2019-05-14T01:47:23.131Z,99.90
2019-05-14T01:49:51.464Z,99.90
2019-05-14T01:52:19.063Z,99.90
2019-05-14T01:54:46.325Z,99.90
2019-05-14T01:57:13.468Z,99.90
2019-05-14T01:59:42.849Z,99.90
2019-05-14T02:02:11.576Z,99.90
2019-05-14T02:04:39.358Z,99.90
2019-05-14T02:07:06.818Z,99.90
2019-05-14T02:09:34.059Z,99.90
2019-05-14T02:12:02.180Z,99.90
2019-05-14T02:14:31.457Z,99.90
2019-05-14T02:16:59.143Z,99.90
2019-05-14T02:19:26.316Z,99.90
2019-05-14T02:21:53.569Z,99.90
2019-05-14T02:24:21.817Z,99.90
2019-05-14T02:26:51.515Z,99.90
2019-05-14T02:29:18.560Z,99.90
2019-05-14T02:31:45.842Z,99.90
2019-05-14T02:34:13.203Z,99.90
2019-05-14T02:36:40.583Z,99.90
2019-05-14T02:39:10.283Z,99.90
2019-05-14T02:41:39.139Z,99.90
2019-05-14T02:44:09.505Z,99.90
2019-05-14T02:46:35.857Z,99.90
2019-05-14T02:49:03.519Z,99.90
2019-05-14T02:51:30.651Z,99.90
2019-05-14T02:53:59.157Z,99.90
2019-05-14T02:56:29.306Z,99.90
2019-05-14T02:58:55.840Z,99.90
2019-05-14T03:01:23.331Z,99.90
2019-05-14T03:03:50.808Z,99.90
2019-05-14T03:06:20.165Z,99.90
2019-05-14T03:08:49.426Z,99.90
2019-05-14T03:11:20.138Z,99.90
2019-05-14T03:13:49.544Z,99.90
2019-05-14T03:16:26.617Z,99.90
2019-05-14T03:18:45.448Z,99.90
2019-05-14T03:21:12.804Z,99.90
2019-05-14T03:23:40.168Z,99.90
2019-05-14T03:26:09.657Z,99.90
2019-05-14T03:28:39.838Z,99.90
2019-05-14T03:31:06.276Z,99.90
2019-05-14T03:33:34.475Z,99.90
2019-05-14T03:36:09.387Z,99.90
2019-05-14T03:38:31.920Z,99.90
2019-05-14T03:41:00.241Z,99.90
2019-05-14T03:43:29.555Z,99.90
2019-05-14T03:45:59.350Z,99.90
2019-05-14T03:48:29.650Z,99.90
2019-05-14T03:50:56.158Z,99.90
2019-05-14T03:53:23.621Z,99.90
2019-05-14T03:55:51.235Z,99.90
2019-05-14T03:58:21.322Z,99.90
2019-05-14T04:00:55.082Z,99.90
2019-05-14T04:03:23.354Z,99.90
2019-05-14T04:05:52.430Z,99.90
2019-05-14T04:08:21.935Z,99.90
2019-05-14T04:10:54.440Z,99.90
2019-05-14T04:13:23.707Z,99.90
2019-05-14T04:15:53.606Z,99.90
2019-05-14T04:18:24.701Z,99.90
2019-05-14T04:20:58.979Z,99.90
2019-05-14T04:23:25.231Z,99.90
2019-05-14T04:25:53.392Z,99.90
2019-05-14T04:28:22.123Z,99.90
2019-05-14T04:30:52.906Z,99.90
2019-05-14T04:33:23.923Z,99.90
2019-05-14T04:35:52.479Z,99.90
2019-05-14T04:38:20.302Z,99.90
2019-05-14T04:40:49.546Z,99.90
2019-05-14T04:43:19.248Z,99.90
2019-05-14T04:45:49.625Z,99.90
2019-05-14T04:48:28.915Z,99.90
2019-05-14T04:50:49.757Z,99.90
2019-05-14T04:53:19.245Z,99.90
2019-05-14T04:55:45.587Z,99.90
2019-05-14T04:58:13.162Z,99.90
2019-05-14T05:00:40.525Z,99.90
2019-05-14T05:03:12.329Z,99.90
2019-05-14T05:05:39.352Z,99.90
2019-05-14T05:08:08.871Z,99.90
2019-05-14T05:10:35.859Z,99.90
2019-05-14T05:13:03.200Z,99.90
2019-05-14T05:15:30.899Z,99.90
2019-05-14T05:17:58.889Z,99.90
2019-05-14T05:20:29.047Z,99.90
2019-05-14T05:22:55.689Z,99.90
2019-05-14T05:25:23.147Z,99.90
2019-05-14T05:27:50.307Z,99.90
2019-05-14T05:30:19.038Z,99.90
2019-05-14T05:32:46.389Z,99.90
2019-05-14T05:35:13.868Z,99.90
2019-05-14T05:37:41.034Z,99.90
2019-05-14T05:40:09.276Z,99.90
2019-05-14T05:42:38.608Z,99.90
2019-05-14T05:45:08.104Z,99.90
2019-05-14T05:47:35.507Z,99.90
2019-05-14T05:50:03.842Z,99.90
2019-05-14T05:52:30.980Z,99.90
2019-05-14T05:54:58.508Z,99.90
2019-05-14T05:57:28.402Z,99.90
2019-05-14T05:59:55.102Z,99.90
2019-05-14T06:02:22.647Z,99.90
2019-05-14T06:04:51.708Z,99.90
2019-05-14T06:07:18.995Z,99.90
2019-05-14T06:09:48.312Z,99.90
2019-05-14T06:12:15.508Z,99.90
2019-05-14T06:14:42.890Z,99.90
2019-05-14T06:17:10.176Z,99.90
2019-05-14T06:19:38.152Z,99.90
2019-05-14T06:22:05.842Z,99.90
2019-05-14T06:24:33.301Z,99.90
2019-05-14T06:27:00.534Z,99.90
2019-05-14T06:29:28.984Z,99.90
2019-05-14T06:31:58.783Z,99.90
2019-05-14T06:34:25.810Z,99.90
2019-05-14T06:36:52.985Z,99.90
2019-05-14T06:39:20.179Z,99.90
2019-05-14T06:41:49.062Z,99.90
2019-05-14T06:44:18.708Z,99.90
2019-05-14T06:46:48.422Z,99.90
2019-05-14T06:49:15.097Z,99.90
2019-05-14T06:51:42.348Z,99.90
2019-05-14T06:54:09.648Z,99.90
2019-05-14T06:56:38.566Z,99.90
2019-05-14T06:59:08.810Z,99.90
2019-05-14T07:01:35.694Z,99.90
2019-05-14T07:04:03.204Z,99.90
2019-05-14T07:06:30.583Z,99.90
2019-05-14T07:08:58.857Z,99.90
2019-05-14T07:11:26.198Z,99.90
2019-05-14T07:13:53.342Z,99.90
2019-05-14T07:16:20.643Z,99.90
2019-05-14T07:18:52.806Z,99.90
2019-05-14T07:21:18.625Z,99.90
2019-05-14T07:23:48.681Z,99.90
2019-05-14T07:26:15.200Z,99.90
2019-05-14T07:28:42.712Z,99.90
2019-05-14T07:31:10.077Z,99.90
2019-05-14T07:33:38.885Z,99.90
2019-05-14T07:36:08.840Z,99.90
2019-05-14T07:38:35.735Z,99.90
2019-05-14T07:41:03.017Z,99.90
2019-05-14T07:43:30.196Z,99.90
2019-05-14T07:45:58.238Z,99.90
2019-05-14T07:48:26.341Z,99.90
2019-05-14T07:50:55.078Z,99.90
2019-05-14T07:53:35.200Z,99.90
2019-05-14T07:55:51.415Z,99.90
2019-05-14T07:58:19.592Z,99.90
2019-05-14T08:00:49.207Z,99.90
2019-05-14T08:03:18.856Z,99.90
2019-05-14T08:05:48.132Z,99.90
2019-05-14T08:08:14.890Z,99.90
2019-05-14T08:10:42.348Z,99.90
2019-05-14T08:13:09.607Z,99.90
2019-05-14T08:15:38.753Z,99.90
2019-05-14T08:18:08.092Z,99.90
2019-05-14T08:20:35.210Z,99.90
2019-05-14T08:23:02.671Z,99.90
2019-05-14T08:25:30.140Z,99.90
2019-05-14T08:27:58.666Z,99.90
2019-05-14T08:30:28.365Z,99.70
2019-05-14T08:32:55.497Z,98.70
2019-05-14T08:35:22.694Z,96.80
2019-05-14T08:38:03.442Z,96.80
2019-05-14T08:40:21.111Z,98.40
2019-05-14T08:42:49.094Z,96.10
2019-05-14T08:45:18.830Z,95.50
2019-05-14T08:47:48.108Z,96.30
2019-05-14T08:50:18.739Z,94.80
2019-05-14T08:52:48.136Z,95.80
2019-05-14T08:55:15.452Z,94.00
2019-05-14T08:57:42.846Z,95.40
2019-05-14T09:00:13.787Z,93.40
2019-05-14T09:02:40.459Z,91.10
2019-05-14T09:05:10.187Z,88.70
2019-05-14T09:07:38.426Z,85.80
2019-05-14T09:10:08.689Z,84.00
2019-05-14T09:12:35.993Z,84.40
2019-05-14T09:15:03.709Z,79.20
2019-05-14T09:17:31.095Z,83.30
2019-05-14T09:20:06.286Z,78.60
2019-05-14T09:22:28.916Z,75.50
2019-05-14T09:24:59.867Z,74.70
2019-05-14T09:27:25.822Z,74.40
2019-05-14T09:29:53.382Z,72.90
2019-05-14T09:32:20.783Z,71.00
2019-05-14T09:34:48.808Z,71.50
2019-05-14T09:37:19.335Z,74.80
2019-05-14T09:39:45.576Z,73.30
2019-05-14T09:42:12.893Z,72.70
2019-05-14T09:44:40.116Z,73.90
2019-05-14T09:47:08.554Z,71.10
2019-05-14T09:49:38.622Z,72.30
2019-05-14T09:52:05.805Z,70.50
2019-05-14T09:54:33.212Z,67.40
2019-05-14T09:57:00.428Z,64.60
2019-05-14T09:59:28.100Z,65.60
2019-05-14T10:01:55.713Z,62.60
2019-05-14T10:04:22.964Z,60.40
2019-05-14T10:06:50.234Z,61.70
2019-05-14T10:09:17.981Z,61.10
2019-05-14T10:11:45.596Z,60.10
2019-05-14T10:14:12.900Z,56.80
2019-05-14T10:16:40.591Z,57.40
2019-05-14T10:19:08.014Z,58.60
2019-05-14T10:21:35.547Z,54.20
2019-05-14T10:24:02.929Z,54.80
2019-05-14T10:26:30.323Z,54.90
2019-05-14T10:28:59.051Z,54.90
2019-05-14T10:31:28.986Z,53.10
2019-05-14T10:33:56.077Z,51.90
2019-05-14T10:36:23.435Z,49.30
2019-05-14T10:38:50.862Z,47.50
2019-05-14T10:41:18.779Z,48.30
2019-05-14T10:43:46.324Z,47.60
2019-05-14T10:46:13.614Z,49.50
2019-05-14T10:48:41.006Z,46.60
2019-05-14T10:51:09.884Z,45.70
2019-05-14T10:53:37.528Z,43.20
2019-05-14T10:56:05.038Z,45.40
2019-05-14T10:58:32.382Z,43.70
2019-05-14T11:00:59.846Z,41.90
2019-05-14T11:03:30.201Z,40.90
2019-05-14T11:05:58.596Z,40.50
2019-05-14T11:08:25.717Z,43.60
2019-05-14T11:10:52.949Z,41.80
2019-05-14T11:13:20.312Z,41.80
2019-05-14T11:15:48.676Z,45.10
2019-05-14T11:18:16.169Z,44.80
2019-05-14T11:20:43.587Z,43.00
2019-05-14T11:23:10.830Z,39.50
2019-05-14T11:25:38.494Z,41.10
2019-05-14T11:28:05.846Z,39.20
2019-05-14T11:30:33.243Z,41.40
2019-05-14T11:33:00.729Z,42.10
2019-05-14T11:35:28.803Z,39.00
2019-05-14T11:37:58.673Z,38.40
2019-05-14T11:40:25.656Z,38.70
2019-05-14T11:42:52.916Z,35.60
2019-05-14T11:45:20.778Z,35.60
2019-05-14T11:47:48.885Z,37.70
2019-05-14T11:50:19.280Z,34.60
2019-05-14T11:52:48.286Z,33.60
2019-05-14T11:55:18.504Z,35.20
2019-05-14T11:57:45.133Z,35.10
2019-05-14T12:00:13.614Z,33.70
2019-05-14T12:02:40.990Z,34.90
2019-05-14T12:05:26.295Z,36.60
2019-05-14T12:07:53.515Z,37.90
2019-05-14T12:10:20.990Z,40.30
2019-05-14T12:12:48.906Z,38.00
2019-05-14T12:15:18.766Z,38.20
2019-05-14T12:17:50.580Z,36.70
2019-05-14T12:20:18.332Z,36.10
2019-05-14T12:22:48.797Z,35.60
2019-05-14T12:25:18.623Z,35.10
2019-05-14T12:27:45.592Z,36.10
2019-05-14T12:30:14.104Z,37.60
2019-05-14T12:32:41.462Z,35.50
2019-05-14T12:35:09.329Z,35.40
2019-05-14T12:37:40.058Z,35.30
2019-05-14T12:40:08.811Z,36.60
2019-05-14T12:42:39.173Z,38.10
2019-05-14T12:45:09.146Z,39.80
2019-05-14T12:47:38.743Z,38.80
2019-05-14T12:50:09.282Z,39.10
2019-05-14T12:52:38.667Z,39.90
2019-05-14T12:55:09.187Z,39.90
2019-05-14T12:57:39.008Z,40.80
2019-05-14T13:00:05.549Z,39.70
2019-05-14T13:02:32.830Z,38.30
2019-05-14T13:05:00.864Z,39.30
2019-05-14T13:07:28.191Z,39.40
2019-05-14T13:09:55.487Z,39.40
2019-05-14T13:12:22.850Z,39.20
2019-05-14T13:14:50.210Z,37.90
2019-05-14T13:17:18.734Z,37.50
2019-05-14T13:19:48.557Z,37.70
2019-05-14T13:22:19.032Z,36.60
2019-05-14T13:24:44.779Z,38.60
2019-05-14T13:27:11.927Z,36.40
2019-05-14T13:29:39.158Z,36.10
2019-05-14T13:32:12.050Z,36.30
2019-05-14T13:34:35.596Z,37.20
2019-05-14T13:37:03.074Z,39.10
2019-05-14T13:39:30.437Z,40.20
2019-05-14T13:41:58.961Z,39.50
2019-05-14T13:44:28.959Z,38.00
2019-05-14T13:46:55.533Z,38.30
2019-05-14T13:49:22.792Z,38.10
2019-05-14T13:51:50.131Z,40.50
2019-05-14T13:54:19.254Z,40.00
2019-05-14T13:56:48.378Z,37.80
2019-05-14T13:59:15.659Z,39.00
2019-05-14T14:01:43.075Z,39.10
2019-05-14T14:04:14.751Z,41.40
2019-05-14T14:06:39.555Z,42.70
2019-05-14T14:09:12.250Z,44.40
2019-05-14T14:11:38.382Z,43.80
2019-05-14T14:14:08.790Z,44.50
2019-05-14T14:16:35.851Z,42.70
2019-05-14T14:19:04.006Z,41.90
2019-05-14T14:21:31.815Z,43.00
2019-05-14T14:23:59.445Z,42.00
2019-05-14T14:26:29.191Z,42.50
2019-05-14T14:28:56.327Z,42.60
2019-05-14T14:31:23.500Z,43.00
2019-05-14T14:33:50.978Z,42.10
2019-05-14T14:36:19.926Z,42.30
2019-05-14T14:38:49.447Z,43.90
2019-05-14T14:41:19.215Z,43.80
2019-05-14T14:43:52.011Z,45.10
2019-05-14T14:46:15.961Z,42.50
2019-05-14T14:48:43.666Z,43.10
2019-05-14T14:51:10.814Z,42.00
2019-05-14T14:53:52.461Z,43.40
2019-05-14T14:56:09.392Z,43.30
2019-05-14T14:58:39.010Z,43.70
2019-05-14T15:01:08.912Z,43.20
2019-05-14T15:03:36.529Z,45.30
2019-05-14T15:06:03.915Z,44.40
2019-05-14T15:08:31.052Z,42.80
2019-05-14T15:10:59.299Z,42.80
2019-05-14T15:13:26.870Z,43.50
2019-05-14T15:15:54.327Z,43.50
2019-05-14T15:18:21.616Z,44.30
2019-05-14T15:20:49.143Z,45.40
2019-05-14T15:23:19.458Z,45.20
2019-05-14T15:25:46.056Z,45.00
2019-05-14T15:28:13.297Z,45.80
2019-05-14T15:30:40.609Z,46.60
2019-05-14T15:33:09.189Z,46.40
2019-05-14T15:35:36.650Z,47.60
2019-05-14T15:38:04.038Z,48.20
2019-05-14T15:40:31.402Z,47.90
2019-05-14T15:43:01.881Z,48.30
2019-05-14T15:45:28.747Z,47.30
2019-05-14T15:48:00.878Z,47.20
2019-05-14T15:50:25.339Z,46.20
2019-05-14T15:52:52.708Z,46.70
2019-05-14T15:55:19.964Z,46.70
2019-05-14T15:57:47.372Z,47.00
2019-05-14T16:00:15.042Z,46.80
2019-05-14T16:02:42.461Z,46.90
2019-05-14T16:05:10.449Z,47.10
2019-05-14T16:07:39.066Z,47.00
2019-05-14T16:10:08.558Z,47.20
2019-05-14T16:12:39.476Z,47.10
2019-05-14T16:15:08.624Z,45.80
2019-05-14T16:17:45.533Z,46.30
2019-05-14T16:20:08.952Z,47.50
2019-05-14T16:22:39.343Z,47.50
2019-05-14T16:25:08.626Z,47.90
2019-05-14T16:27:35.145Z,47.00
2019-05-14T16:30:02.870Z,47.30
2019-05-14T16:32:30.046Z,48.00
2019-05-14T16:34:58.067Z,48.10
2019-05-14T16:37:25.393Z,47.80
2019-05-14T16:39:52.656Z,47.40
2019-05-14T16:42:20.811Z,48.10
2019-05-14T16:44:48.282Z,48.30
2019-05-14T16:47:15.458Z,48.80
2019-05-14T16:49:42.610Z,48.70
2019-05-14T16:52:10.999Z,49.00
2019-05-14T16:54:39.462Z,49.00
2019-05-14T16:57:11.109Z,48.30
2019-05-14T16:59:39.299Z,48.00
2019-05-14T17:02:05.813Z,47.80
2019-05-14T17:04:33.184Z,47.20
2019-05-14T17:07:00.758Z,48.20
2019-05-14T17:09:28.400Z,47.30
2019-05-14T17:11:55.829Z,48.30
2019-05-14T17:14:23.009Z,47.20
2019-05-14T17:16:50.162Z,48.50
2019-05-14T17:19:18.792Z,48.70
2019-05-14T17:21:48.565Z,49.10
2019-05-14T17:24:15.477Z,49.30
2019-05-14T17:26:42.753Z,50.00
2019-05-14T17:29:10.271Z,51.20
2019-05-14T17:31:39.090Z,51.20
2019-05-14T17:34:08.745Z,52.10
2019-05-14T17:36:38.967Z,53.80
2019-05-14T17:39:08.589Z,54.00
2019-05-14T17:41:36.084Z,55.00
2019-05-14T17:44:04.184Z,55.70
2019-05-14T17:46:31.338Z,56.00
2019-05-14T17:48:59.133Z,56.60
2019-05-14T17:51:28.451Z,56.50
2019-05-14T17:53:55.873Z,56.80
2019-05-14T17:56:23.395Z,56.80
2019-05-14T17:58:50.767Z,57.30
2019-05-14T18:01:18.483Z,57.80
2019-05-14T18:03:48.851Z,58.20
2019-05-14T18:06:15.649Z,58.30
2019-05-14T18:08:43.045Z,58.90
2019-05-14T18:11:10.220Z,59.10
2019-05-14T18:13:39.009Z,59.40
2019-05-14T18:16:08.990Z,59.80
2019-05-14T18:18:36.321Z,60.10
2019-05-14T18:21:03.932Z,60.20
2019-05-14T18:23:31.227Z,60.80
2019-05-14T18:26:08.078Z,61.00
2019-05-14T18:28:28.789Z,61.70
2019-05-14T18:30:58.583Z,61.90
2019-05-14T18:33:25.334Z,62.60
2019-05-14T18:35:52.497Z,63.10
2019-05-14T18:38:19.877Z,63.90
2019-05-14T18:40:49.437Z,64.80
2019-05-14T18:43:18.644Z,65.00
2019-05-14T18:45:47.972Z,65.30
2019-05-14T18:48:14.528Z,66.00
2019-05-14T18:50:41.914Z,67.20
2019-05-14T18:53:12.846Z,68.70
2019-05-14T18:55:38.834Z,69.90
2019-05-14T18:58:08.404Z,71.40
2019-05-14T19:00:35.584Z,74.00
2019-05-14T19:03:02.965Z,75.50
2019-05-14T19:05:31.253Z,77.30
2019-05-14T19:07:59.267Z,79.60
2019-05-14T19:10:28.061Z,81.20
2019-05-14T19:12:55.517Z,84.10
2019-05-14T19:15:24.207Z,86.50
2019-05-14T19:17:51.383Z,87.30
2019-05-14T19:20:19.471Z,90.10
2019-05-14T19:22:49.206Z,91.20
2019-05-14T19:25:19.070Z,92.30
2019-05-14T19:27:49.645Z,93.00
2019-05-14T19:30:19.125Z,94.00
2019-05-14T19:32:48.537Z,94.80
2019-05-14T19:35:15.742Z,96.70
2019-05-14T19:37:43.065Z,97.60
2019-05-14T19:40:10.686Z,99.10
2019-05-14T19:42:39.253Z,99.60
2019-05-14T19:45:12.580Z,99.90
2019-05-14T19:47:43.384Z,99.90
2019-05-14T19:50:12.577Z,99.90
2019-05-14T19:52:40.447Z,99.90
2019-05-14T19:55:15.772Z,99.90
2019-05-14T19:57:45.050Z,99.90
2019-05-14T20:00:18.568Z,99.90
2019-05-14T20:02:46.011Z,99.90
2019-05-14T20:05:13.651Z,99.90
2019-05-14T20:07:40.834Z,99.90
2019-05-14T20:10:08.942Z,99.90
2019-05-14T20:12:39.186Z,99.90
2019-05-14T20:15:09.130Z,99.90
2019-05-14T20:17:38.220Z,99.90
2019-05-14T20:20:05.855Z,99.90
2019-05-14T20:22:33.156Z,99.90
2019-05-14T20:25:00.875Z,99.90
2019-05-14T20:27:28.309Z,99.90
2019-05-14T20:29:57.713Z,99.90
2019-05-14T20:32:24.787Z,99.90
2019-05-14T20:34:51.968Z,99.90
2019-05-14T20:37:19.147Z,99.90
2019-05-14T20:39:48.343Z,99.90
2019-05-14T20:42:18.336Z,99.90
2019-05-14T20:44:44.949Z,99.90
2019-05-14T20:47:12.244Z,99.90
2019-05-14T20:49:39.608Z,99.90
2019-05-14T20:52:08.520Z,99.90
2019-05-14T20:54:36.035Z,99.90
2019-05-14T20:57:03.568Z,99.90
2019-05-14T20:59:30.938Z,99.90
2019-05-14T21:01:59.391Z,99.90
2019-05-14T21:04:28.207Z,99.90
2019-05-14T21:06:55.511Z,99.90
2019-05-14T21:09:22.683Z,99.90
2019-05-14T21:11:49.844Z,99.90
2019-05-14T21:14:18.250Z,99.90
2019-05-14T21:16:45.576Z,99.90
2019-05-14T21:19:12.832Z,99.90
2019-05-14T21:21:39.995Z,99.90
2019-05-14T21:24:08.830Z,99.90
2019-05-14T21:26:36.311Z,99.90
2019-05-14T21:29:03.798Z,99.90
2019-05-14T21:31:33.437Z,99.90
2019-05-14T21:34:01.013Z,99.90
2019-05-14T21:36:28.501Z,99.90
2019-05-14T21:38:55.845Z,99.90
2019-05-14T21:41:23.112Z,99.90
2019-05-14T21:43:50.287Z,99.90
2019-05-14T21:46:19.446Z,99.90
2019-05-14T21:48:47.837Z,99.90
2019-05-14T21:51:15.174Z,99.90
2019-05-14T21:53:42.578Z,99.90
2019-05-14T21:56:09.876Z,99.90
2019-05-14T21:58:38.757Z,99.90
2019-05-14T22:01:08.603Z,99.90
2019-05-14T22:03:35.976Z,99.90
2019-05-14T22:06:03.432Z,99.90
2019-05-14T22:08:30.617Z,99.90
2019-05-14T22:10:58.537Z,99.90
2019-05-14T22:13:28.288Z,99.90
2019-05-14T22:15:55.179Z,99.90
2019-05-14T22:18:22.551Z,99.90
2019-05-14T22:20:50.134Z,99.90
2019-05-14T22:23:17.887Z,99.90
2019-05-14T22:25:48.595Z,99.90
2019-05-14T22:28:18.309Z,99.90
2019-05-14T22:30:45.146Z,99.90
2019-05-14T22:33:12.292Z,99.90
2019-05-14T22:35:39.927Z,99.90
2019-05-14T22:38:07.498Z,99.90
2019-05-14T22:40:34.769Z,99.90
2019-05-14T22:43:01.942Z,99.90
2019-05-14T22:45:29.406Z,99.90
2019-05-14T22:47:58.806Z,99.90
2019-05-14T22:50:25.634Z,99.90
2019-05-14T22:52:52.792Z,99.90
2019-05-14T22:55:20.170Z,99.90
2019-05-14T22:57:48.302Z,99.90
2019-05-14T23:00:20.731Z,99.90
2019-05-14T23:02:45.149Z,99.90
2019-05-14T23:05:12.909Z,99.90
2019-05-14T23:07:40.171Z,99.90
2019-05-14T23:10:08.963Z,99.90
2019-05-14T23:12:38.554Z,99.90
2019-05-14T23:15:06.508Z,99.90
2019-05-14T23:17:33.657Z,99.90
2019-05-14T23:20:01.150Z,99.90
2019-05-14T23:22:29.662Z,99.90
2019-05-14T23:24:59.217Z,99.90
2019-05-14T23:27:26.330Z,99.90
2019-05-14T23:29:53.944Z,99.90
2019-05-14T23:32:21.307Z,99.90
2019-05-14T23:34:48.914Z,99.90
2019-05-14T23:37:18.157Z,99.90
2019-05-14T23:39:46.029Z,99.90
2019-05-14T23:42:13.274Z,99.90
2019-05-14T23:44:40.535Z,99.90
2019-05-14T23:47:08.302Z,99.90
2019-05-14T23:49:35.870Z,99.90
2019-05-14T23:52:03.318Z,99.90
2019-05-14T23:54:30.589Z,99.90
2019-05-14T23:56:58.444Z,99.90
2019-05-14T23:59:25.791Z,99.90
